createdAt,value
2023-05-02T00:00:50.719Z,99980.89
2023-05-02T00:03:17.815Z,99979.06
2023-05-02T00:05:44.708Z,99981.47
2023-05-02T00:08:12.226Z,99983.84
2023-05-02T00:10:39.212Z,99987.54
2023-05-02T00:13:06.036Z,99986.59
2023-05-02T00:15:33.929Z,99988.71
2023-05-02T00:18:00.987Z,99990.19
2023-05-02T00:20:28.103Z,99990.45
2023-05-02T00:22:56.652Z,99990.40
2023-05-02T00:25:23.549Z,99992.14
2023-05-02T00:27:50.534Z,99994.27
2023-05-02T00:30:17.891Z,99991.16
2023-05-02T00:32:45.156Z,99994.12
2023-05-02T00:35:12.078Z,100001.01
2023-05-02T00:37:39.421Z,100007.44
2023-05-02T00:40:08.319Z,100012.10
2023-05-02T00:42:35.815Z,100012.78
2023-05-02T00:45:05.933Z,100018.02
2023-05-02T00:47:34.362Z,100021.55
2023-05-02T00:50:02.208Z,100026.23
2023-05-02T00:52:29.534Z,100025.98
2023-05-02T00:54:57.091Z,100028.06
2023-05-02T00:57:24.958Z,100026.31
2023-05-02T00:59:51.779Z,100025.85
2023-05-02T01:02:40.388Z,100028.90
2023-05-02T01:05:44.793Z,100027.36
2023-05-02T01:08:39.979Z,100028.81
2023-05-02T01:11:17.735Z,100032.08
2023-05-02T01:13:45.199Z,100033.06
2023-05-02T01:16:12.727Z,100032.59
2023-05-02T01:18:41.270Z,100027.27
2023-05-02T01:21:09.484Z,100022.34
2023-05-02T01:24:02.085Z,100024.17
2023-05-02T01:26:34.150Z,100022.71
2023-05-02T01:29:07.918Z,100024.73
2023-05-02T01:31:36.916Z,100026.02
2023-05-02T01:34:05.226Z,100029.55
2023-05-02T01:36:32.200Z,100027.60
2023-05-02T01:38:59.958Z,100029.50
2023-05-02T01:41:27.628Z,100032.73
2023-05-02T01:43:56.650Z,100029.31
2023-05-02T01:46:25.909Z,100026.65
2023-05-02T01:48:52.738Z,100029.13
2023-05-02T01:51:19.677Z,100031.55
2023-05-02T01:53:48.567Z,100029.48
2023-05-02T01:56:16.952Z,100030.88
2023-05-02T01:58:43.756Z,100031.56
2023-05-02T02:01:10.840Z,100031.09
2023-05-02T02:03:37.615Z,100026.27
2023-05-02T02:06:04.715Z,100025.04
2023-05-02T02:08:31.772Z,100023.78
2023-05-02T02:11:00.099Z,100030.27
2023-05-02T02:13:32.810Z,100029.66
2023-05-02T02:16:01.925Z,100029.80
2023-05-02T02:18:28.992Z,100028.91
2023-05-02T02:20:56.734Z,100020.73
2023-05-02T02:23:26.186Z,100021.04
2023-05-02T02:25:53.150Z,100019.45
2023-05-02T02:28:19.917Z,100029.59
2023-05-02T02:30:46.728Z,100030.00
2023-05-02T02:33:13.993Z,100032.52
2023-05-02T02:35:42.676Z,100031.45
2023-05-02T02:38:34.453Z,100024.93
2023-05-02T02:41:11.268Z,100019.09
2023-05-02T02:43:44.083Z,100014.61
2023-05-02T02:46:34.232Z,100019.77
2023-05-02T02:49:14.325Z,100020.86
2023-05-02T02:51:46.354Z,100026.66
2023-05-02T02:54:26.390Z,100034.68
2023-05-02T02:57:02.226Z,100041.29
2023-05-02T02:59:33.672Z,100034.63
2023-05-02T03:02:07.913Z,100031.26
2023-05-02T03:04:38.707Z,100032.70
2023-05-02T03:07:05.565Z,100037.98
2023-05-02T03:09:46.461Z,100044.65
2023-05-02T03:12:16.722Z,100043.89
2023-05-02T03:14:43.878Z,100044.70
2023-05-02T03:17:11.537Z,100045.77
2023-05-02T03:19:38.580Z,100050.87
2023-05-02T03:22:05.810Z,100050.30
2023-05-02T03:24:34.241Z,100055.16
2023-05-02T03:27:01.539Z,100050.59
2023-05-02T03:29:30.898Z,100054.77
2023-05-02T03:31:57.820Z,100050.86
2023-05-02T03:34:25.216Z,100057.72
2023-05-02T03:36:52.421Z,100056.50
2023-05-02T03:39:20.379Z,100058.23
2023-05-02T03:41:48.118Z,100062.73
2023-05-02T03:44:16.854Z,100066.59
2023-05-02T03:46:44.312Z,100067.52
2023-05-02T03:49:11.515Z,100066.29
2023-05-02T03:51:39.559Z,100066.55
2023-05-02T03:54:06.999Z,100074.02
2023-05-02T03:56:35.994Z,100082.77
2023-05-02T03:59:14.476Z,100085.90
2023-05-02T04:01:41.433Z,100087.88
2023-05-02T04:04:10.862Z,100099.02
2023-05-02T04:06:44.218Z,100098.98
2023-05-02T04:09:11.072Z,100096.13
2023-05-02T04:11:44.149Z,100103.38
2023-05-02T04:14:12.554Z,100102.70
2023-05-02T04:16:39.879Z,100101.30
2023-05-02T04:19:06.899Z,100109.23
2023-05-02T04:21:36.669Z,100105.92
2023-05-02T04:24:04.923Z,100104.48
2023-05-02T04:26:32.269Z,100105.46
2023-05-02T04:29:04.552Z,100103.58
2023-05-02T04:31:32.398Z,100109.45
2023-05-02T04:33:59.811Z,100110.69
2023-05-02T04:36:29.865Z,100119.08
2023-05-02T04:38:56.978Z,100117.10
2023-05-02T04:41:23.777Z,100114.86
2023-05-02T04:43:56.678Z,100114.80
2023-05-02T04:46:23.544Z,100120.67
2023-05-02T04:48:50.985Z,100121.67
2023-05-02T04:51:17.702Z,100127.42
2023-05-02T04:53:47.803Z,100124.06
2023-05-02T04:56:14.925Z,100128.02
2023-05-02T04:58:42.774Z,100121.67
2023-05-02T05:01:10.755Z,100116.36
2023-05-02T05:03:38.226Z,100119.95
2023-05-02T05:06:06.668Z,100126.44
2023-05-02T05:08:34.462Z,100123.95
2023-05-02T05:11:01.299Z,100125.73
2023-05-02T05:13:28.529Z,100121.70
2023-05-02T05:15:55.970Z,100129.99
2023-05-02T05:18:26.458Z,100137.98
2023-05-02T05:20:53.437Z,100138.63
2023-05-02T05:23:20.262Z,100139.39
2023-05-02T05:25:47.495Z,100138.86
2023-05-02T05:28:17.886Z,100145.30
2023-05-02T05:30:44.647Z,100143.52
2023-05-02T05:33:15.487Z,100151.77
2023-05-02T05:35:42.957Z,100151.07
2023-05-02T05:38:09.997Z,100152.38
2023-05-02T05:40:38.776Z,100153.95
2023-05-02T05:43:07.672Z,100148.36
2023-05-02T05:45:37.406Z,100148.48
2023-05-02T05:48:05.869Z,100145.94
2023-05-02T05:50:37.822Z,100149.63
2023-05-02T05:53:04.771Z,100148.75
2023-05-02T05:55:32.021Z,100154.05
2023-05-02T05:57:59.512Z,100152.09
2023-05-02T06:00:26.630Z,100148.13
2023-05-02T06:02:53.837Z,100140.11
2023-05-02T06:05:33.217Z,100142.52
2023-05-02T06:08:00.400Z,100139.11
2023-05-02T06:10:27.132Z,100143.09
2023-05-02T06:12:54.119Z,100137.89
2023-05-02T06:15:24.883Z,100143.11
2023-05-02T06:17:51.859Z,100132.10
2023-05-02T06:20:18.956Z,100142.58
2023-05-02T06:22:45.840Z,100138.20
2023-05-02T06:25:13.314Z,100140.77
2023-05-02T06:27:40.308Z,100141.29
2023-05-02T06:30:07.986Z,100140.15
2023-05-02T06:32:35.688Z,100142.63
2023-05-02T06:35:02.586Z,100131.28
2023-05-02T06:37:35.005Z,100138.19
2023-05-02T06:40:02.748Z,100140.05
2023-05-02T06:42:30.498Z,100141.14
2023-05-02T06:44:57.541Z,100146.32
2023-05-02T06:47:27.644Z,100148.02
2023-05-02T06:49:55.289Z,100147.41
2023-05-02T06:52:22.048Z,100148.05
2023-05-02T06:54:49.100Z,100143.73
2023-05-02T06:57:15.839Z,100154.64
2023-05-02T06:59:42.724Z,100152.73
2023-05-02T07:02:10.743Z,100146.20
2023-05-02T07:04:37.611Z,100153.71
2023-05-02T07:07:05.043Z,100154.77
2023-05-02T07:09:32.407Z,100154.56
2023-05-02T07:12:00.324Z,100159.40
2023-05-02T07:14:28.637Z,100161.17
2023-05-02T07:16:55.454Z,100156.24
2023-05-02T07:19:22.360Z,100160.36
2023-05-02T07:21:49.547Z,100160.02
2023-05-02T07:24:16.307Z,100165.59
2023-05-02T07:26:43.066Z,100156.59
2023-05-02T07:29:10.007Z,100158.13
2023-05-02T07:31:36.929Z,100153.48
2023-05-02T07:34:03.868Z,100158.88
2023-05-02T07:36:32.276Z,100150.92
2023-05-02T07:38:59.076Z,100157.69
2023-05-02T07:41:25.885Z,100159.62
2023-05-02T07:43:52.804Z,100160.59
2023-05-02T07:46:19.949Z,100162.15
2023-05-02T07:48:46.921Z,100152.23
2023-05-02T07:51:13.697Z,100160.41
2023-05-02T07:53:40.968Z,100163.79
2023-05-02T07:56:08.231Z,100156.73
2023-05-02T07:58:36.583Z,100158.77
2023-05-02T08:01:03.913Z,100167.02
2023-05-02T08:03:31.002Z,100160.41
2023-05-02T08:05:57.906Z,100149.44
2023-05-02T08:08:24.685Z,100145.11
2023-05-02T08:10:51.429Z,100145.15
2023-05-02T08:13:18.545Z,100151.26
2023-05-02T08:15:45.459Z,100150.33
2023-05-02T08:18:12.354Z,100155.14
2023-05-02T08:20:39.081Z,100150.67
2023-05-02T08:23:05.793Z,100151.70
2023-05-02T08:25:32.748Z,100146.91
2023-05-02T08:27:59.508Z,100147.61
2023-05-02T08:30:26.261Z,100145.98
2023-05-02T08:32:53.078Z,100146.89
2023-05-02T08:35:20.740Z,100139.71
2023-05-02T08:37:47.529Z,100142.61
2023-05-02T08:40:14.458Z,100143.23
2023-05-02T08:42:43.302Z,100137.81
2023-05-02T08:45:11.049Z,100139.13
2023-05-02T08:47:38.358Z,100134.61
2023-05-02T08:50:06.169Z,100138.25
2023-05-02T08:52:33.575Z,100139.24
2023-05-02T08:55:01.081Z,100133.13
2023-05-02T08:57:31.199Z,100126.86
2023-05-02T08:59:58.350Z,100128.81
2023-05-02T09:02:55.605Z,100124.16
2023-05-02T09:05:23.536Z,100122.27
2023-05-02T09:07:51.047Z,100123.53
2023-05-02T09:10:17.734Z,100127.90
2023-05-02T09:12:45.872Z,100124.17
2023-05-02T09:15:19.006Z,100119.92
2023-05-02T09:17:47.928Z,100124.70
2023-05-02T09:20:15.694Z,100106.58
2023-05-02T09:22:50.458Z,100111.25
2023-05-02T09:25:17.943Z,100108.04
2023-05-02T09:27:55.352Z,100107.16
2023-05-02T09:30:23.957Z,100111.21
2023-05-02T09:32:51.226Z,100116.84
2023-05-02T09:35:27.926Z,100111.23
2023-05-02T09:37:57.561Z,100106.96
2023-05-02T09:40:24.894Z,100109.73
2023-05-02T09:42:52.018Z,100105.41
2023-05-02T09:45:22.952Z,100099.02
2023-05-02T09:47:50.561Z,100104.23
2023-05-02T09:50:43.870Z,100095.63
2023-05-02T09:53:11.457Z,100101.86
2023-05-02T09:55:39.210Z,100100.10
2023-05-02T09:58:06.118Z,100100.96
2023-05-02T10:00:43.026Z,100107.08
2023-05-02T10:03:10.018Z,100097.15
2023-05-02T10:05:38.417Z,100104.35
2023-05-02T10:08:05.769Z,100097.45
2023-05-02T10:10:34.181Z,100098.54
2023-05-02T10:13:01.550Z,100089.80
2023-05-02T10:15:29.326Z,100082.67
2023-05-02T10:17:56.117Z,100088.33
2023-05-02T10:20:23.047Z,100097.86
2023-05-02T10:22:50.218Z,100088.79
2023-05-02T10:25:17.027Z,100080.81
2023-05-02T10:27:44.436Z,100082.56
2023-05-02T10:30:12.568Z,100071.80
2023-05-02T10:32:40.126Z,100078.46
2023-05-02T10:35:07.829Z,100074.77
2023-05-02T10:37:35.959Z,100070.65
2023-05-02T10:40:02.834Z,100068.95
2023-05-02T10:42:29.835Z,100067.45
2023-05-02T10:44:57.253Z,100073.55
2023-05-02T10:47:26.258Z,100077.22
2023-05-02T10:50:01.973Z,100072.73
2023-05-02T10:52:37.625Z,100074.73
2023-05-02T10:55:18.314Z,100064.02
2023-05-02T10:57:58.172Z,100057.14
2023-05-02T11:00:26.033Z,100057.66
2023-05-02T11:02:52.949Z,100057.10
2023-05-02T11:05:21.523Z,100056.73
2023-05-02T11:07:48.280Z,100051.48
2023-05-02T11:10:17.910Z,100058.83
2023-05-02T11:12:48.686Z,100050.34
2023-05-02T11:15:22.497Z,100053.17
2023-05-02T11:18:00.928Z,100051.15
2023-05-02T11:20:28.314Z,100058.30
2023-05-02T11:22:56.413Z,100049.19
2023-05-02T11:25:36.900Z,100039.88
2023-05-02T11:28:05.881Z,100029.61
2023-05-02T11:30:43.340Z,100029.10
2023-05-02T11:33:11.416Z,100031.77
2023-05-02T11:35:41.058Z,100029.67
2023-05-02T11:38:12.288Z,100030.23
2023-05-02T11:40:39.011Z,100030.73
2023-05-02T11:43:13.297Z,100047.18
2023-05-02T11:45:41.700Z,100044.88
2023-05-02T11:48:08.989Z,100041.11
2023-05-02T11:50:48.790Z,100036.76
2023-05-02T11:53:39.955Z,100036.87
2023-05-02T11:56:08.349Z,100026.11
2023-05-02T11:58:35.500Z,100024.36
2023-05-02T12:01:15.123Z,100017.44
2023-05-02T12:03:42.617Z,100015.89
2023-05-02T12:06:14.883Z,100017.34
2023-05-02T12:08:43.051Z,100014.02
2023-05-02T12:11:12.479Z,100014.77
2023-05-02T12:13:47.781Z,100012.07
2023-05-02T12:16:15.392Z,100013.45
2023-05-02T12:18:42.494Z,100016.79
2023-05-02T12:21:09.323Z,100012.33
2023-05-02T12:23:37.427Z,100014.89
2023-05-02T12:26:18.022Z,100014.29
2023-05-02T12:28:50.263Z,100013.85
2023-05-02T12:31:17.157Z,100011.34
2023-05-02T12:33:47.587Z,100013.23
2023-05-02T12:36:14.304Z,100010.70
2023-05-02T12:38:42.531Z,100011.67
2023-05-02T12:41:09.291Z,100009.14
2023-05-02T12:43:49.042Z,100008.58
2023-05-02T12:46:16.021Z,100003.73
2023-05-02T12:48:44.221Z,100002.36
2023-05-02T12:51:22.944Z,99998.63
2023-05-02T12:53:49.852Z,100002.44
2023-05-02T12:56:16.804Z,100000.80
2023-05-02T12:58:45.223Z,99999.39
2023-05-02T13:01:13.370Z,99995.48
2023-05-02T13:03:41.388Z,99990.28
2023-05-02T13:06:08.193Z,99989.78
2023-05-02T13:08:35.729Z,99986.25
2023-05-02T13:11:03.290Z,99991.66
2023-05-02T13:13:30.526Z,99987.56
2023-05-02T13:15:57.532Z,99977.64
2023-05-02T13:18:24.593Z,99980.19
2023-05-02T13:20:51.338Z,99981.65
2023-05-02T13:23:18.681Z,99980.36
2023-05-02T13:25:45.736Z,99976.25
2023-05-02T13:28:12.569Z,99970.23
2023-05-02T13:30:39.597Z,99968.51
2023-05-02T13:33:06.632Z,99974.15
2023-05-02T13:35:35.409Z,99975.17
2023-05-02T13:38:03.135Z,99969.67
2023-05-02T13:40:30.051Z,99967.40
2023-05-02T13:42:57.058Z,99951.95
2023-05-02T13:45:23.838Z,99956.33
2023-05-02T13:47:50.743Z,99948.91
2023-05-02T13:50:17.478Z,99947.92
2023-05-02T13:52:45.926Z,99945.86
2023-05-02T13:55:13.943Z,99932.83
2023-05-02T13:57:40.672Z,99936.27
2023-05-02T14:00:09.296Z,99929.72
2023-05-02T14:02:36.878Z,99928.61
2023-05-02T14:05:04.821Z,99920.66
2023-05-02T14:07:32.581Z,99927.60
2023-05-02T14:09:59.619Z,99920.44
2023-05-02T14:12:26.949Z,99919.67
2023-05-02T14:14:53.708Z,99912.47
2023-05-02T14:17:21.167Z,99913.09
2023-05-02T14:19:48.494Z,99918.38
2023-05-02T14:22:15.633Z,99915.22
2023-05-02T14:24:42.570Z,99913.48
2023-05-02T14:27:12.496Z,99921.92
2023-05-02T14:29:39.777Z,99914.63
2023-05-02T14:32:06.694Z,99917.30
2023-05-02T14:34:34.409Z,99914.41
2023-05-02T14:37:01.364Z,99917.50
2023-05-02T14:39:28.284Z,99913.99
2023-05-02T14:41:55.261Z,99907.02
2023-05-02T14:44:22.069Z,99896.83
2023-05-02T14:46:48.873Z,99894.16
2023-05-02T14:49:16.099Z,99893.59
2023-05-02T14:51:46.660Z,99892.77
2023-05-02T14:54:15.034Z,99887.70
2023-05-02T14:56:43.134Z,99886.29
2023-05-02T14:59:09.919Z,99885.85
2023-05-02T15:01:37.094Z,99884.23
2023-05-02T15:04:06.488Z,99878.20
2023-05-02T15:06:35.432Z,99885.59
2023-05-02T15:09:02.636Z,99882.63
2023-05-02T15:11:29.475Z,99881.45
2023-05-02T15:13:59.255Z,99881.23
2023-05-02T15:16:26.543Z,99874.61
2023-05-02T15:18:53.350Z,99871.41
2023-05-02T15:21:20.387Z,99874.08
2023-05-02T15:23:47.374Z,99871.09
2023-05-02T15:26:14.099Z,99872.17
2023-05-02T15:28:42.310Z,99871.02
2023-05-02T15:31:08.959Z,99871.35
2023-05-02T15:33:36.844Z,99869.02
2023-05-02T15:36:03.784Z,99867.55
2023-05-02T15:38:30.638Z,99863.66
2023-05-02T15:40:58.882Z,99854.32
2023-05-02T15:43:25.952Z,99851.45
2023-05-02T15:45:53.915Z,99856.96
2023-05-02T15:48:21.116Z,99857.54
2023-05-02T15:50:47.970Z,99853.16
2023-05-02T15:53:15.664Z,99851.40
2023-05-02T15:55:42.923Z,99854.65
2023-05-02T15:58:09.914Z,99848.94
2023-05-02T16:00:36.791Z,99848.84
2023-05-02T16:03:04.163Z,99844.02
2023-05-02T16:05:32.430Z,99846.34
2023-05-02T16:07:59.408Z,99845.25
2023-05-02T16:10:26.892Z,99845.15
2023-05-02T16:12:53.925Z,99845.48
2023-05-02T16:15:20.931Z,99844.06
2023-05-02T16:17:48.463Z,99842.59
2023-05-02T16:20:16.026Z,99838.23
2023-05-02T16:22:46.371Z,99835.05
2023-05-02T16:25:14.038Z,99831.81
2023-05-02T16:27:41.028Z,99836.11
2023-05-02T16:30:08.720Z,99837.53
2023-05-02T16:32:36.839Z,99839.81
2023-05-02T16:35:06.675Z,99838.25
2023-05-02T16:37:34.421Z,99837.93
2023-05-02T16:40:01.886Z,99838.23
2023-05-02T16:42:29.179Z,99835.41
2023-05-02T16:44:56.757Z,99833.94
2023-05-02T16:47:23.556Z,99829.82
2023-05-02T16:49:55.029Z,99830.25
2023-05-02T16:52:21.987Z,99834.38
2023-05-02T16:54:48.844Z,99832.13
2023-05-02T16:57:20.272Z,99833.80
2023-05-02T16:59:48.252Z,99830.90
2023-05-02T17:02:15.249Z,99833.77
2023-05-02T17:04:42.483Z,99838.84
2023-05-02T17:07:11.740Z,99839.61
2023-05-02T17:09:40.335Z,99840.61
2023-05-02T17:12:07.595Z,99838.66
2023-05-02T17:14:34.477Z,99842.10
2023-05-02T17:17:01.601Z,99849.42
2023-05-02T17:19:29.131Z,99845.46
2023-05-02T17:21:57.240Z,99851.77
2023-05-02T17:24:24.568Z,99847.89
2023-05-02T17:26:51.499Z,99849.33
2023-05-02T17:29:18.539Z,99849.45
2023-05-02T17:31:45.443Z,99847.29
2023-05-02T17:34:12.542Z,99852.09
2023-05-02T17:36:43.063Z,99851.61
2023-05-02T17:39:12.420Z,99849.52
2023-05-02T17:41:39.418Z,99848.20
2023-05-02T17:44:06.464Z,99847.77
2023-05-02T17:46:33.612Z,99845.86
2023-05-02T17:49:00.560Z,99846.15
2023-05-02T17:51:27.439Z,99848.85
2023-05-02T17:53:54.252Z,99848.73
2023-05-02T17:56:21.074Z,99850.27
2023-05-02T17:58:48.142Z,99852.12
2023-05-02T18:01:15.192Z,99857.91
2023-05-02T18:03:42.930Z,99855.30
2023-05-02T18:06:15.273Z,99849.61
2023-05-02T18:08:43.041Z,99846.81
2023-05-02T18:11:19.266Z,99844.64
2023-05-02T18:13:46.465Z,99841.94
2023-05-02T18:16:13.561Z,99847.27
2023-05-02T18:18:41.587Z,99851.09
2023-05-02T18:21:11.108Z,99846.48
2023-05-02T18:23:39.554Z,99843.61
2023-05-02T18:26:13.598Z,99839.32
2023-05-02T18:28:44.496Z,99840.80
2023-05-02T18:31:17.479Z,99844.30
2023-05-02T18:33:46.091Z,99840.45
2023-05-02T18:36:15.202Z,99845.57
2023-05-02T18:38:41.996Z,99845.23
2023-05-02T18:41:09.543Z,99847.45
2023-05-02T18:43:36.901Z,99849.08
2023-05-02T18:46:03.806Z,99846.58
2023-05-02T18:48:31.042Z,99846.38
2023-05-02T18:50:57.847Z,99848.05
2023-05-02T18:53:25.862Z,99847.64
2023-05-02T18:55:53.519Z,99850.14
2023-05-02T18:58:21.178Z,99851.16
2023-05-02T19:00:48.132Z,99850.48
2023-05-02T19:03:15.306Z,99855.98
2023-05-02T19:05:42.458Z,99859.31
2023-05-02T19:08:09.581Z,99862.55
2023-05-02T19:10:37.951Z,99858.48
2023-05-02T19:13:05.039Z,99852.88
2023-05-02T19:15:33.693Z,99850.19
2023-05-02T19:18:00.780Z,99848.63
2023-05-02T19:20:29.516Z,99850.73
2023-05-02T19:23:14.798Z,99849.17
2023-05-02T19:25:44.363Z,99846.41
2023-05-02T19:28:11.708Z,99845.44
2023-05-02T19:30:42.999Z,99844.84
2023-05-02T19:33:10.118Z,99845.92
2023-05-02T19:35:37.145Z,99844.14
2023-05-02T19:38:04.132Z,99839.21
2023-05-02T19:40:31.266Z,99841.81
2023-05-02T19:42:58.134Z,99839.33
2023-05-02T19:45:24.981Z,99840.45
2023-05-02T19:47:51.993Z,99841.65
2023-05-02T19:50:18.846Z,99843.70
2023-05-02T19:52:45.850Z,99845.66
2023-05-02T19:55:13.002Z,99842.33
2023-05-02T19:57:40.813Z,99838.63
2023-05-02T20:00:08.408Z,99842.58
2023-05-02T20:02:39.749Z,99841.55
2023-05-02T20:05:07.705Z,99843.17
2023-05-02T20:07:35.307Z,99844.10
2023-05-02T20:10:03.961Z,99839.08
2023-05-02T20:12:31.352Z,99839.55
2023-05-02T20:14:58.334Z,99836.20
2023-05-02T20:17:25.101Z,99842.45
2023-05-02T20:19:51.977Z,99834.16
2023-05-02T20:22:18.841Z,99835.35
2023-05-02T20:24:45.714Z,99837.83
2023-05-02T20:27:12.589Z,99840.65
2023-05-02T20:29:39.456Z,99840.52
2023-05-02T20:32:06.210Z,99838.00
2023-05-02T20:34:35.024Z,99845.30
2023-05-02T20:37:04.702Z,99843.95
2023-05-02T20:39:32.083Z,99847.98
2023-05-02T20:41:59.020Z,99842.85
2023-05-02T20:44:27.910Z,99848.56
2023-05-02T20:46:54.856Z,99850.50
2023-05-02T20:49:21.806Z,99851.96
2023-05-02T20:51:49.625Z,99850.34
2023-05-02T20:54:18.152Z,99851.09
2023-05-02T20:56:44.962Z,99850.57
2023-05-02T20:59:11.793Z,99858.73
2023-05-02T21:01:38.720Z,99863.39
2023-05-02T21:04:05.817Z,99870.41
2023-05-02T21:06:34.777Z,99872.83
2023-05-02T21:09:02.392Z,99876.91
2023-05-02T21:11:29.432Z,99876.52
2023-05-02T21:13:56.467Z,99879.75
2023-05-02T21:16:23.355Z,99875.54
2023-05-02T21:18:50.268Z,99877.02
2023-05-02T21:21:17.177Z,99881.88
2023-05-02T21:23:44.363Z,99876.68
2023-05-02T21:26:11.160Z,99883.05
2023-05-02T21:28:39.431Z,99885.80
2023-05-02T21:31:06.640Z,99886.60
2023-05-02T21:33:33.592Z,99888.26
2023-05-02T21:36:00.910Z,99889.95
2023-05-02T21:38:27.993Z,99891.69
2023-05-02T21:40:55.279Z,99890.17
2023-05-02T21:43:22.154Z,99894.25
2023-05-02T21:45:49.306Z,99893.95
2023-05-02T21:48:16.570Z,99894.85
2023-05-02T21:50:43.907Z,99896.19
2023-05-02T21:53:12.100Z,99893.43
2023-05-02T21:55:39.138Z,99889.84
2023-05-02T21:58:06.980Z,99891.48
2023-05-02T22:00:38.895Z,99888.82
2023-05-02T22:03:11.149Z,99896.51
2023-05-02T22:05:39.229Z,99896.84
2023-05-02T22:08:07.364Z,99901.85
2023-05-02T22:10:38.108Z,99902.02
2023-05-02T22:13:06.646Z,99910.83
2023-05-02T22:15:33.334Z,99903.48
2023-05-02T22:18:01.436Z,99894.38
2023-05-02T22:20:28.801Z,99899.27
2023-05-02T22:22:55.886Z,99898.59
2023-05-02T22:25:22.943Z,99897.29
2023-05-02T22:27:49.823Z,99898.98
2023-05-02T22:30:16.838Z,99899.89
2023-05-02T22:32:43.881Z,99904.99
2023-05-02T22:35:10.707Z,99908.79
2023-05-02T22:37:37.596Z,99901.16
2023-05-02T22:40:07.653Z,99901.63
2023-05-02T22:42:34.460Z,99902.08
2023-05-02T22:45:01.491Z,99904.73
2023-05-02T22:47:28.944Z,99910.63
2023-05-02T22:49:58.988Z,99914.94
2023-05-02T22:52:26.812Z,99910.60
2023-05-02T22:54:53.712Z,99914.02
2023-05-02T22:57:20.615Z,99916.70
2023-05-02T22:59:47.424Z,99916.73
2023-05-02T23:02:14.581Z,99910.38
2023-05-02T23:04:41.528Z,99914.75
2023-05-02T23:07:08.573Z,99911.89
2023-05-02T23:09:35.518Z,99911.21
2023-05-02T23:12:03.486Z,99917.98
2023-05-02T23:14:31.360Z,99920.23
2023-05-02T23:16:58.143Z,99917.14
2023-05-02T23:19:25.451Z,99914.54
2023-05-02T23:21:52.435Z,99913.52
2023-05-02T23:24:19.204Z,99911.17
2023-05-02T23:26:46.382Z,99910.30
2023-05-02T23:29:13.324Z,99907.31
2023-05-02T23:31:40.281Z,99915.36
2023-05-02T23:34:07.237Z,99916.95
2023-05-02T23:36:35.202Z,99915.01
2023-05-02T23:39:02.233Z,99910.81
2023-05-02T23:41:29.688Z,99910.67
2023-05-02T23:43:56.571Z,99907.88
2023-05-02T23:46:24.022Z,99904.61
2023-05-02T23:48:50.898Z,99902.51
2023-05-02T23:51:17.616Z,99902.96
2023-05-02T23:53:44.925Z,99900.73
2023-05-02T23:56:11.742Z,99899.59
2023-05-02T23:58:38.458Z,99898.64
